Pagrindinis puslapis
METAR-TAF:

METAR-TAF

Oro uostai :

Gvidonija, Italija

platuma: 42-00N, ilguma: 012-44E, Aukštis: 88 m

METAR: trūkstamas

Laikas: 01:59 (00:59 UTC)

Prognozė

Ataskaita buvo paskelbta 10 valandos ir 59 minutes, ne 14:00 UTC
Prognozė galioja nuo 27 metu 15 UTC su 27 metu 24 UTC
Vėjas 7 kt iš Pietų/Pietryčių
Matomumas 10 km arba daugiau
nėra debesų žemiau 1500 m ir nėra kamuolinių lietaus debesų
Laikinai
nuo 27 metu 15 UTC su 27 metu 19 UTC
Matomumas 10 km arba daugiau
Išsisklaidę debesys ne aukštis 4000 ft

TAF: LIRG 271400Z 2715/2724 15007KT CAVOK TEMPO 2715/2719 9999 SCT040

Orai ataskaitas ir orų prognozės (METAR, TAF).

turimą stotys yra geltonos ir raudonos taškus žemėlapyje.

Perkelti pele per norėdami pamatyti stoties vardą.

Tada spustelėkite, norėdami matyti oro stebėjimo ir prognozės.

Norėdami pakeisti žemėlapį: spustelėkite ant žalios mygtukų su juodo kryžiaus žemyn,; žalią mygtuką su brūkšneliu, jei norite nutolinti; arba žalių rodyklių gretimoms žemėlapius.


METAR-TAF: